createdAt,value
2022-11-10T00:01:13.147Z,96741.34
2022-11-10T00:04:00.969Z,96755.53
2022-11-10T00:06:48.946Z,96751.13
2022-11-10T00:09:36.182Z,96751.94
2022-11-10T00:12:24.354Z,96749.97
2022-11-10T00:15:30.951Z,96754.59
2022-11-10T00:18:17.949Z,96760.28
2022-11-10T00:21:07.992Z,96759.91
2022-11-10T00:23:55.104Z,96758.03
2022-11-10T00:26:43.001Z,96758.28
2022-11-10T00:29:30.434Z,96768.44
2022-11-10T00:32:19.185Z,96770.06
2022-11-10T00:35:07.646Z,96774.31
2022-11-10T00:37:55.477Z,96775.50
2022-11-10T00:40:42.487Z,96749.09
2022-11-10T00:43:31.033Z,96785.03
2022-11-10T00:46:18.487Z,96788.81
2022-11-10T00:49:07.109Z,96785.75
2022-11-10T00:51:54.624Z,96793.69
2022-11-10T00:54:42.160Z,96792.63
2022-11-10T00:57:29.199Z,96793.44
2022-11-10T01:00:18.013Z,96794.84
2022-11-10T01:03:05.577Z,96810.81
2022-11-10T01:05:54.028Z,96811.63
2022-11-10T01:08:43.071Z,96813.53
2022-11-10T01:11:30.489Z,96816.44
2022-11-10T01:14:18.004Z,96830.53
2022-11-10T01:17:05.625Z,96826.88
2022-11-10T01:19:53.232Z,96836.59
2022-11-10T01:22:42.194Z,96826.31
2022-11-10T01:25:29.183Z,96839.91
2022-11-10T01:28:17.180Z,96825.75
2022-11-10T01:31:07.284Z,96834.63
2022-11-10T01:33:55.446Z,96830.97
2022-11-10T01:36:42.311Z,96833.13
2022-11-10T01:39:31.547Z,96828.38
2022-11-10T01:42:25.747Z,96833.38
2022-11-10T01:45:46.416Z,96845.16
2022-11-10T01:48:38.190Z,96858.13
2022-11-10T01:51:28.999Z,96854.22
2022-11-10T01:54:21.091Z,96855.38
2022-11-10T01:57:13.617Z,96865.16
2022-11-10T02:00:01.456Z,96861.06
2022-11-10T02:02:54.275Z,96864.00
2022-11-10T02:05:41.983Z,96869.19
2022-11-10T02:08:29.958Z,96861.28
2022-11-10T02:11:18.328Z,96867.78
2022-11-10T02:14:08.231Z,96870.50
2022-11-10T02:16:55.397Z,96869.06
2022-11-10T02:19:43.729Z,96874.28
2022-11-10T02:22:31.944Z,96867.41
2022-11-10T02:25:22.762Z,96863.41
2022-11-10T02:28:10.247Z,96871.56
2022-11-10T02:30:57.041Z,96867.66
2022-11-10T02:33:44.891Z,96871.75
2022-11-10T02:36:32.514Z,96872.59
2022-11-10T02:39:20.662Z,96876.38
2022-11-10T02:42:10.699Z,96880.53
2022-11-10T02:44:58.462Z,96878.84
2022-11-10T02:47:45.990Z,96885.56
2022-11-10T02:50:33.383Z,96889.34
2022-11-10T02:53:21.720Z,96894.78
2022-11-10T02:56:10.716Z,96905.63
2022-11-10T02:58:58.605Z,96916.47
2022-11-10T03:01:46.050Z,96916.22
2022-11-10T03:04:33.425Z,96896.03
2022-11-10T03:07:20.404Z,96926.00
2022-11-10T03:10:09.293Z,96925.19
2022-11-10T03:12:59.140Z,96936.03
2022-11-10T03:15:48.793Z,96930.59
2022-11-10T03:18:35.915Z,96938.50
2022-11-10T03:21:23.863Z,96942.66
2022-11-10T03:24:11.297Z,96945.59
2022-11-10T03:26:59.278Z,96943.47
2022-11-10T03:29:47.719Z,96952.19
2022-11-10T03:32:35.620Z,96948.41
2022-11-10T03:35:23.222Z,96956.34
2022-11-10T03:38:10.274Z,96950.94
2022-11-10T03:41:18.036Z,96967.78
2022-11-10T03:44:05.789Z,96969.69
2022-11-10T03:46:54.005Z,96975.44
2022-11-10T03:49:42.405Z,96980.28
2022-11-10T03:52:29.449Z,96989.25
2022-11-10T03:55:19.459Z,96991.72
2022-11-10T03:58:06.519Z,96994.03
2022-11-10T04:00:54.912Z,97002.97
2022-11-10T04:03:47.475Z,97001.34
2022-11-10T04:06:55.027Z,97012.59
2022-11-10T04:09:42.330Z,97021.22
2022-11-10T04:12:47.024Z,97010.13
2022-11-10T04:15:43.595Z,97011.78
2022-11-10T04:18:31.327Z,97012.09
2022-11-10T04:21:19.408Z,97009.03
2022-11-10T04:24:08.282Z,97012.69
2022-11-10T04:26:55.522Z,97009.97
2022-11-10T04:29:42.890Z,97019.28
2022-11-10T04:32:29.865Z,97019.88
2022-11-10T04:35:17.304Z,97029.88
2022-11-10T04:38:06.243Z,97038.41
2022-11-10T04:40:53.632Z,97037.59
2022-11-10T04:43:42.365Z,97053.84
2022-11-10T04:46:32.157Z,97053.03
2022-11-10T04:49:19.868Z,97051.16
2022-11-10T04:52:08.668Z,97060.34
2022-11-10T04:54:58.105Z,97057.63
2022-11-10T04:57:45.054Z,97055.13
2022-11-10T05:00:32.803Z,97061.59
2022-11-10T05:03:20.222Z,97064.31
2022-11-10T05:06:08.806Z,97070.81
2022-11-10T05:08:55.938Z,97068.91
2022-11-10T05:11:44.647Z,97068.09
2022-11-10T05:14:31.743Z,97071.88
2022-11-10T05:17:18.907Z,97079.19
2022-11-10T05:20:06.694Z,97083.78
2022-11-10T05:23:11.911Z,97092.97
2022-11-10T05:25:59.038Z,97093.41
2022-11-10T05:28:47.996Z,97106.38
2022-11-10T05:31:34.682Z,97094.72
2022-11-10T05:34:22.190Z,97101.78
2022-11-10T05:37:09.269Z,97108.28
2022-11-10T05:39:56.880Z,97119.34
2022-11-10T05:42:44.664Z,97119.44
2022-11-10T05:45:34.150Z,97122.56
2022-11-10T05:48:21.030Z,97126.59
2022-11-10T05:51:08.882Z,97140.59
2022-11-10T05:53:55.783Z,97132.56
2022-11-10T05:56:43.822Z,97131.16
2022-11-10T05:59:30.768Z,97153.25
2022-11-10T06:02:19.179Z,97157.00
2022-11-10T06:05:07.835Z,97154.13
2022-11-10T06:07:55.017Z,97155.03
2022-11-10T06:10:42.302Z,97157.16
2022-11-10T06:13:29.364Z,97156.09
2022-11-10T06:16:16.387Z,97164.22
2022-11-10T06:19:05.007Z,97164.69
2022-11-10T06:21:57.078Z,97177.59
2022-11-10T06:24:47.831Z,97182.66
2022-11-10T06:27:35.062Z,97187.09
2022-11-10T06:30:22.118Z,97202.28
2022-11-10T06:33:10.924Z,97208.75
2022-11-10T06:35:59.892Z,97216.88
2022-11-10T06:38:47.187Z,97214.88
2022-11-10T06:41:34.619Z,97223.66
2022-11-10T06:44:22.105Z,97235.53
2022-11-10T06:47:09.278Z,97241.00
2022-11-10T06:49:56.843Z,97254.78
2022-11-10T06:52:45.363Z,97248.72
2022-11-10T06:55:33.607Z,97262.69
2022-11-10T06:58:20.502Z,97265.59
2022-11-10T07:01:07.838Z,97279.97
2022-11-10T07:04:18.233Z,97286.44
2022-11-10T07:07:02.826Z,97297.28
2022-11-10T07:09:51.206Z,97305.81
2022-11-10T07:12:38.508Z,97308.53
2022-11-10T07:15:25.984Z,97314.63
2022-11-10T07:18:13.792Z,97325.66
2022-11-10T07:21:03.299Z,97330.09
2022-11-10T07:23:51.310Z,97324.25
2022-11-10T07:26:39.646Z,97341.94
2022-11-10T07:29:27.196Z,97337.34
2022-11-10T07:32:14.872Z,97328.66
2022-11-10T07:35:02.593Z,97339.22
2022-11-10T07:37:49.553Z,97346.94
2022-11-10T07:40:37.955Z,97350.03
2022-11-10T07:43:26.965Z,97356.66
2022-11-10T07:46:14.682Z,97362.22
2022-11-10T07:49:01.804Z,97358.50
2022-11-10T07:51:48.714Z,97372.41
2022-11-10T07:54:36.173Z,97359.09
2022-11-10T07:57:23.299Z,97375.03
2022-11-10T08:00:14.228Z,97390.44
2022-11-10T08:03:05.712Z,97385.63
2022-11-10T08:05:53.095Z,97384.78
2022-11-10T08:08:39.918Z,97391.59
2022-11-10T08:11:27.264Z,97400.09
2022-11-10T08:14:14.377Z,97403.13
2022-11-10T08:17:03.749Z,97402.69
2022-11-10T08:19:50.703Z,97412.00
2022-11-10T08:22:38.242Z,97410.09
2022-11-10T08:25:26.378Z,97413.81
2022-11-10T08:28:17.814Z,97413.81
2022-11-10T08:31:06.304Z,97432.72
2022-11-10T08:33:55.225Z,97435.59
2022-11-10T08:36:42.828Z,97436.75
2022-11-10T08:39:39.134Z,97440.19
2022-11-10T08:42:26.134Z,97448.06
2022-11-10T08:45:13.853Z,97450.53
2022-11-10T08:48:02.651Z,97460.16
2022-11-10T08:50:53.030Z,97454.88
2022-11-10T08:53:39.886Z,97453.94
2022-11-10T08:56:27.101Z,97466.28
2022-11-10T08:59:14.805Z,97469.81
2022-11-10T09:02:01.757Z,97483.09
2022-11-10T09:04:49.724Z,97480.63
2022-11-10T09:07:45.969Z,97487.25
2022-11-10T09:10:33.215Z,97487.47
2022-11-10T09:13:27.745Z,97484.69
2022-11-10T09:16:16.651Z,97490.41
2022-11-10T09:19:04.175Z,97496.69
2022-11-10T09:21:51.356Z,97498.50
2022-11-10T09:24:39.597Z,97506.75
2022-11-10T09:27:26.822Z,97510.91
2022-11-10T09:30:17.949Z,97515.25
2022-11-10T09:33:10.295Z,97525.25
2022-11-10T09:36:01.967Z,97520.47
2022-11-10T09:38:49.797Z,97516.16
2022-11-10T09:41:41.828Z,97515.84
2022-11-10T09:44:34.967Z,97524.34
2022-11-10T09:47:55.668Z,97534.97
2022-11-10T09:50:41.534Z,97528.81
2022-11-10T09:53:35.530Z,97548.56
2022-11-10T09:56:31.269Z,97560.91
2022-11-10T09:59:26.537Z,97557.88
2022-11-10T10:02:23.951Z,97555.19
2022-11-10T10:05:46.513Z,97558.88
2022-11-10T10:08:46.409Z,97572.88
2022-11-10T10:11:44.154Z,97559.53
2022-11-10T10:14:49.462Z,97548.25
2022-11-10T10:17:41.705Z,97562.97
2022-11-10T10:20:36.273Z,97566.59
2022-11-10T10:23:54.353Z,97574.13
2022-11-10T10:26:43.210Z,97573.22
2022-11-10T10:29:37.880Z,97581.13
2022-11-10T10:32:27.930Z,97568.84
2022-11-10T10:35:16.681Z,97568.28
2022-11-10T10:38:06.026Z,97567.19
2022-11-10T10:40:58.356Z,97572.19
2022-11-10T10:43:49.996Z,97571.84
2022-11-10T10:46:46.231Z,97575.63
2022-11-10T10:49:36.311Z,97566.66
2022-11-10T10:52:25.343Z,97580.91
2022-11-10T10:55:15.235Z,97584.63
2022-11-10T10:58:04.207Z,97580.94
2022-11-10T11:00:55.332Z,97591.81
2022-11-10T11:03:44.501Z,97595.41
2022-11-10T11:06:35.376Z,97582.66
2022-11-10T11:09:25.327Z,97593.25
2022-11-10T11:12:15.083Z,97593.03
2022-11-10T11:15:22.059Z,97592.09
2022-11-10T11:18:16.320Z,97593.78
2022-11-10T11:21:10.299Z,97596.00
2022-11-10T11:24:13.670Z,97592.97
2022-11-10T11:27:05.996Z,97598.28
2022-11-10T11:30:05.872Z,97592.56
2022-11-10T11:33:14.756Z,97589.38
2022-11-10T11:36:10.398Z,97585.00
2022-11-10T11:39:05.839Z,97585.09
2022-11-10T11:42:05.699Z,97574.03
2022-11-10T11:45:05.108Z,97565.88
2022-11-10T11:48:12.038Z,97572.44
2022-11-10T11:51:06.740Z,97561.28
2022-11-10T11:54:13.907Z,97581.66
2022-11-10T11:57:15.010Z,97576.31
2022-11-10T12:00:10.391Z,97582.91
2022-11-10T12:03:23.389Z,97589.34
2022-11-10T12:06:28.138Z,97583.41
2022-11-10T12:09:24.047Z,97580.56
2022-11-10T12:12:33.429Z,97597.44
2022-11-10T12:15:30.019Z,97594.50
2022-11-10T12:18:30.463Z,97607.16
2022-11-10T12:21:25.845Z,97585.53
2022-11-10T12:24:36.176Z,97594.56
2022-11-10T12:27:29.646Z,97591.25
2022-11-10T12:30:19.231Z,97600.34
2022-11-10T12:33:14.413Z,97599.94
2022-11-10T12:36:04.375Z,97577.19
2022-11-10T12:39:00.096Z,97584.03
2022-11-10T12:41:50.854Z,97585.59
2022-11-10T12:44:44.566Z,97588.50
2022-11-10T12:47:37.040Z,97581.25
2022-11-10T12:50:45.567Z,97578.88
2022-11-10T12:53:34.865Z,97583.44
2022-11-10T12:56:27.918Z,97583.81
2022-11-10T12:59:23.439Z,97582.84
2022-11-10T13:02:24.816Z,97598.94
2022-11-10T13:05:24.835Z,97597.38
2022-11-10T13:08:25.547Z,97593.25
2022-11-10T13:11:27.120Z,97597.94
2022-11-10T13:14:23.707Z,97596.56
2022-11-10T13:17:12.762Z,97583.06
2022-11-10T13:20:20.481Z,97599.09
2022-11-10T13:23:23.399Z,97597.97
2022-11-10T13:26:11.899Z,97596.34
2022-11-10T13:29:02.659Z,97597.97
2022-11-10T13:31:57.733Z,97606.75
2022-11-10T13:34:46.061Z,97598.50
2022-11-10T13:37:51.011Z,97610.63
2022-11-10T13:40:39.624Z,97605.66
2022-11-10T13:43:29.056Z,97601.00
2022-11-10T13:46:16.116Z,97581.13
2022-11-10T13:49:39.419Z,97594.06
2022-11-10T13:52:45.488Z,97599.56
2022-11-10T13:55:49.050Z,97590.50
2022-11-10T13:58:37.686Z,97598.50
2022-11-10T14:01:28.992Z,97601.78
2022-11-10T14:04:42.300Z,97604.03
2022-11-10T14:07:32.585Z,97602.94
2022-11-10T14:10:35.722Z,97609.53
2022-11-10T14:13:29.306Z,97608.16
2022-11-10T14:16:23.215Z,97623.84
2022-11-10T14:19:25.697Z,97624.66
2022-11-10T14:22:23.843Z,97626.00
2022-11-10T14:25:20.326Z,97625.72
2022-11-10T14:28:26.076Z,97639.72
2022-11-10T14:31:20.623Z,97639.16
2022-11-10T14:34:14.131Z,97635.81
2022-11-10T14:37:04.894Z,97636.88
2022-11-10T14:39:55.796Z,97634.00
2022-11-10T14:42:42.911Z,97637.66
2022-11-10T14:45:31.719Z,97639.34
2022-11-10T14:48:21.202Z,97638.38
2022-11-10T14:51:14.126Z,97640.31
2022-11-10T14:54:02.695Z,97632.88
2022-11-10T14:56:50.568Z,97648.31
2022-11-10T14:59:38.828Z,97636.00
2022-11-10T15:02:26.924Z,97643.78
2022-11-10T15:05:16.861Z,97640.25
2022-11-10T15:08:05.381Z,97649.06
2022-11-10T15:10:56.624Z,97642.72
2022-11-10T15:13:43.931Z,97636.66
2022-11-10T15:16:32.874Z,97634.41
2022-11-10T15:19:28.590Z,97641.91
2022-11-10T15:22:20.752Z,97638.38
2022-11-10T15:25:16.284Z,97641.06
2022-11-10T15:28:06.890Z,97637.44
2022-11-10T15:30:56.483Z,97654.66
2022-11-10T15:33:48.265Z,97652.78
2022-11-10T15:36:39.563Z,97663.69
2022-11-10T15:39:28.758Z,97662.66
2022-11-10T15:42:17.963Z,97667.75
2022-11-10T15:45:05.319Z,97675.47
2022-11-10T15:47:52.543Z,97670.44
2022-11-10T15:50:39.744Z,97680.03
2022-11-10T15:53:31.384Z,97682.94
2022-11-10T15:56:20.504Z,97678.28
2022-11-10T15:59:07.826Z,97689.03
2022-11-10T16:01:55.363Z,97694.09
2022-11-10T16:04:42.610Z,97689.41
2022-11-10T16:07:29.619Z,97702.50
2022-11-10T16:10:18.273Z,97710.41
2022-11-10T16:13:05.479Z,97711.47
2022-11-10T16:15:52.943Z,97714.13
2022-11-10T16:18:43.849Z,97716.09
2022-11-10T16:21:31.270Z,97729.31
2022-11-10T16:24:18.502Z,97729.38
2022-11-10T16:27:09.080Z,97730.06
2022-11-10T16:29:56.150Z,97733.44
2022-11-10T16:32:43.355Z,97723.06
2022-11-10T16:35:30.426Z,97729.00
2022-11-10T16:38:20.740Z,97731.78
2022-11-10T16:41:14.104Z,97736.00
2022-11-10T16:44:03.283Z,97737.34
2022-11-10T16:46:54.549Z,97745.97
2022-11-10T16:49:46.034Z,97752.50
2022-11-10T16:52:33.372Z,97754.03
2022-11-10T16:55:20.278Z,97755.91
2022-11-10T16:58:07.993Z,97762.22
2022-11-10T17:01:00.738Z,97751.06
2022-11-10T17:03:51.329Z,97779.84
2022-11-10T17:06:39.012Z,97780.34
2022-11-10T17:09:27.104Z,97772.84
2022-11-10T17:12:15.152Z,97771.81
2022-11-10T17:15:02.805Z,97780.78
2022-11-10T17:17:54.242Z,97791.22
2022-11-10T17:20:44.282Z,97795.47
2022-11-10T17:23:31.837Z,97795.88
2022-11-10T17:26:20.785Z,97773.44
2022-11-10T17:29:07.783Z,97803.47
2022-11-10T17:31:56.048Z,97796.41
2022-11-10T17:34:44.430Z,97798.75
2022-11-10T17:37:31.934Z,97796.00
2022-11-10T17:40:21.655Z,97792.25
2022-11-10T17:43:11.469Z,97796.00
2022-11-10T17:46:00.126Z,97797.09
2022-11-10T17:48:47.853Z,97796.03
2022-11-10T17:51:37.601Z,97803.16
2022-11-10T17:54:25.771Z,97811.94
2022-11-10T17:57:13.095Z,97809.41
2022-11-10T18:00:00.102Z,97805.88
2022-11-10T18:02:54.162Z,97820.09
2022-11-10T18:05:43.313Z,97822.59
2022-11-10T18:08:32.509Z,97820.91
2022-11-10T18:11:20.158Z,97826.56
2022-11-10T18:14:07.281Z,97819.47
2022-11-10T18:16:54.209Z,97835.72
2022-11-10T18:19:42.137Z,97833.63
2022-11-10T18:22:29.213Z,97826.97
2022-11-10T18:25:18.192Z,97830.72
2022-11-10T18:28:05.164Z,97827.81
2022-11-10T18:30:51.817Z,97826.97
2022-11-10T18:33:39.571Z,97831.56
2022-11-10T18:36:26.830Z,97824.84
2022-11-10T18:39:14.346Z,97823.41
2022-11-10T18:42:02.801Z,97821.09
2022-11-10T18:44:51.947Z,97822.13
2022-11-10T18:47:40.289Z,97821.06
2022-11-10T18:50:27.255Z,97808.94
2022-11-10T18:53:14.407Z,97811.47
2022-11-10T18:56:01.385Z,97811.47
2022-11-10T18:58:56.442Z,97817.22
2022-11-10T19:01:44.280Z,97816.81
2022-11-10T19:04:31.171Z,97822.25
2022-11-10T19:07:18.210Z,97819.72
2022-11-10T19:10:06.535Z,97820.69
2022-11-10T19:12:53.064Z,97828.63
2022-11-10T19:15:42.666Z,97820.72
2022-11-10T19:18:30.272Z,97812.81
2022-11-10T19:21:19.746Z,97832.84
2022-11-10T19:24:07.235Z,97827.66
2022-11-10T19:26:54.774Z,97824.69
2022-11-10T19:29:41.945Z,97841.75
2022-11-10T19:32:32.186Z,97847.56
2022-11-10T19:35:19.858Z,97841.72
2022-11-10T19:38:07.283Z,97851.31
2022-11-10T19:40:55.151Z,97853.53
2022-11-10T19:43:47.134Z,97862.28
2022-11-10T19:46:37.606Z,97854.72
2022-11-10T19:49:25.870Z,97863.25
2022-11-10T19:52:13.346Z,97869.03
2022-11-10T19:55:00.449Z,97861.34
2022-11-10T19:57:47.705Z,97851.94
2022-11-10T20:00:35.967Z,97866.94
2022-11-10T20:03:23.489Z,97857.75
2022-11-10T20:06:13.855Z,97874.94
2022-11-10T20:09:00.750Z,97873.88
2022-11-10T20:11:48.198Z,97879.31
2022-11-10T20:14:35.323Z,97881.31
2022-11-10T20:17:23.535Z,97884.13
2022-11-10T20:20:10.564Z,97886.09
2022-11-10T20:23:03.253Z,97892.66
2022-11-10T20:25:50.363Z,97901.84
2022-11-10T20:28:39.375Z,97900.00
2022-11-10T20:31:27.003Z,97896.97
2022-11-10T20:34:15.209Z,97912.06
2022-11-10T20:37:01.906Z,97902.41
2022-11-10T20:39:50.228Z,97911.53
2022-11-10T20:42:42.390Z,97908.47
2022-11-10T20:45:29.769Z,97910.06
2022-11-10T20:48:16.670Z,97907.94
2022-11-10T20:51:10.154Z,97909.31
2022-11-10T20:53:59.227Z,97908.19
2022-11-10T20:56:48.727Z,97915.81
2022-11-10T20:59:36.364Z,97923.78
2022-11-10T21:02:23.750Z,97927.94
2022-11-10T21:05:10.704Z,97930.59
2022-11-10T21:07:58.054Z,97919.84
2022-11-10T21:10:51.124Z,97913.53
2022-11-10T21:13:40.043Z,97915.88
2022-11-10T21:16:27.321Z,97906.03
2022-11-10T21:19:14.341Z,97910.69
2022-11-10T21:22:01.574Z,97895.38
2022-11-10T21:24:49.146Z,97911.72
2022-11-10T21:27:36.230Z,97906.03
2022-11-10T21:30:24.497Z,97909.34
2022-11-10T21:33:12.027Z,97910.31
2022-11-10T21:35:59.058Z,97908.38
2022-11-10T21:38:47.131Z,97902.81
2022-11-10T21:41:34.091Z,97903.22
2022-11-10T21:44:21.882Z,97903.00
2022-11-10T21:47:10.502Z,97900.63
2022-11-10T21:49:57.775Z,97917.91
2022-11-10T21:52:44.765Z,97922.94
2022-11-10T21:55:32.143Z,97914.66
2022-11-10T21:58:19.243Z,97924.81
2022-11-10T22:01:08.659Z,97929.38
2022-11-10T22:03:56.955Z,97917.75
2022-11-10T22:07:10.361Z,97916.81
2022-11-10T22:10:14.996Z,97916.72
2022-11-10T22:13:20.352Z,97909.72
2022-11-10T22:16:39.191Z,97906.38
2022-11-10T22:19:27.610Z,97914.56
2022-11-10T22:22:15.594Z,97920.16
2022-11-10T22:25:02.273Z,97913.84
2022-11-10T22:27:49.882Z,97910.84
2022-11-10T22:30:37.396Z,97926.59
2022-11-10T22:33:34.614Z,97931.22
2022-11-10T22:36:23.169Z,97935.69
2022-11-10T22:39:10.560Z,97937.28
2022-11-10T22:42:15.745Z,97932.00
2022-11-10T22:45:02.966Z,97926.84
2022-11-10T22:48:07.662Z,97923.22
2022-11-10T22:50:55.536Z,97934.19
2022-11-10T22:53:43.875Z,97935.03
2022-11-10T22:56:33.205Z,97933.81
2022-11-10T22:59:21.027Z,97930.03
2022-11-10T23:02:08.583Z,97928.81
2022-11-10T23:04:55.484Z,97922.19
2022-11-10T23:07:42.833Z,97917.63
2022-11-10T23:10:31.711Z,97918.03
2022-11-10T23:13:19.293Z,97916.81
2022-11-10T23:16:08.858Z,97918.56
2022-11-10T23:18:56.766Z,97916.91
2022-11-10T23:21:44.838Z,97903.50
2022-11-10T23:24:31.693Z,97913.66
2022-11-10T23:27:20.439Z,97896.34
2022-11-10T23:30:08.884Z,97896.81
2022-11-10T23:32:56.061Z,97899.78
2022-11-10T23:35:43.551Z,97897.06
2022-11-10T23:38:31.625Z,97902.13
2022-11-10T23:41:21.886Z,97902.38
2022-11-10T23:44:10.809Z,97904.53
2022-11-10T23:46:57.814Z,97906.84
2022-11-10T23:49:45.825Z,97900.53
2022-11-10T23:52:33.105Z,97904.72
2022-11-10T23:55:20.461Z,97907.50
2022-11-10T23:58:07.806Z,97903.50
